sensor_id;sensor_type;location;lat;lon;timestamp;pressure;altitude;pressure_sealevel;temperature;humidity
13367;BME280;6752;52.612;13.630;2023-04-10T00:02:11;101971.41;;;3.60;100.00
13367;BME280;6752;52.612;13.630;2023-04-10T00:07:13;101975.02;;;3.59;100.00
13367;BME280;6752;52.612;13.630;2023-04-10T00:12:15;101974.44;;;3.51;100.00
13367;BME280;6752;52.612;13.630;2023-04-10T00:17:18;101974.94;;;3.50;100.00
13367;BME280;6752;52.612;13.630;2023-04-10T00:22:20;101967.66;;;3.37;100.00
13367;BME280;6752;52.612;13.630;2023-04-10T00:27:23;101963.34;;;3.35;100.00
13367;BME280;6752;52.612;13.630;2023-04-10T00:32:25;101956.80;;;3.19;100.00
13367;BME280;6752;52.612;13.630;2023-04-10T00:37:27;101945.61;;;3.09;100.00
13367;BME280;6752;52.612;13.630;2023-04-10T00:42:30;101946.39;;;3.15;100.00
13367;BME280;6752;52.612;13.630;2023-04-10T00:47:32;101938.85;;;2.99;100.00
13367;BME280;6752;52.612;13.630;2023-04-10T00:52:34;101937.44;;;2.95;100.00
13367;BME280;6752;52.612;13.630;2023-04-10T00:57:37;101936.38;;;2.87;100.00
13367;BME280;6752;52.612;13.630;2023-04-10T01:02:39;101924.97;;;2.89;100.00
13367;BME280;6752;52.612;13.630;2023-04-10T01:13:21;101925.32;;;2.90;100.00
13367;BME280;6752;52.612;13.630;2023-04-10T01:19:01;101930.13;;;2.96;100.00
13367;BME280;6752;52.612;13.630;2023-04-10T01:23:50;101926.52;;;2.92;100.00
13367;BME280;6752;52.612;13.630;2023-04-10T01:28:58;101918.70;;;2.84;100.00
13367;BME280;6752;52.612;13.630;2023-04-10T01:34:19;101927.18;;;3.09;100.00
13367;BME280;6752;52.612;13.630;2023-04-10T01:39:04;101923.83;;;2.97;100.00
13367;BME280;6752;52.612;13.630;2023-04-10T01:44:06;101912.53;;;2.83;100.00
13367;BME280;6752;52.612;13.630;2023-04-10T01:49:08;101911.00;;;2.85;100.00
13367;BME280;6752;52.612;13.630;2023-04-10T01:54:11;101920.72;;;2.91;100.00
13367;BME280;6752;52.612;13.630;2023-04-10T01:59:13;101921.25;;;2.71;100.00
13367;BME280;6752;52.612;13.630;2023-04-10T02:04:15;101918.13;;;2.71;100.00
13367;BME280;6752;52.612;13.630;2023-04-10T02:09:22;101912.47;;;2.69;100.00
13367;BME280;6752;52.612;13.630;2023-04-10T02:14:24;101913.67;;;2.61;100.00
13367;BME280;6752;52.612;13.630;2023-04-10T02:19:26;101921.25;;;2.61;100.00
13367;BME280;6752;52.612;13.630;2023-04-10T02:24:28;101917.59;;;2.52;100.00
13367;BME280;6752;52.612;13.630;2023-04-10T02:29:30;101925.30;;;2.41;100.00
13367;BME280;6752;52.612;13.630;2023-04-10T02:34:32;101928.30;;;2.28;100.00
13367;BME280;6752;52.612;13.630;2023-04-10T02:39:35;101925.88;;;2.25;100.00
13367;BME280;6752;52.612;13.630;2023-04-10T02:44:37;101928.01;;;2.26;100.00
13367;BME280;6752;52.612;13.630;2023-04-10T02:49:39;101934.80;;;2.25;100.00
13367;BME280;6752;52.612;13.630;2023-04-10T02:54:42;101930.70;;;2.11;100.00
13367;BME280;6752;52.612;13.630;2023-04-10T02:59:44;101934.04;;;1.83;100.00
13367;BME280;6752;52.612;13.630;2023-04-10T03:04:46;101934.31;;;1.90;100.00
13367;BME280;6752;52.612;13.630;2023-04-10T03:09:48;101928.12;;;1.89;100.00
13367;BME280;6752;52.612;13.630;2023-04-10T03:14:50;101932.36;;;1.87;100.00
13367;BME280;6752;52.612;13.630;2023-04-10T03:19:53;101925.33;;;1.80;100.00
13367;BME280;6752;52.612;13.630;2023-04-10T03:24:55;101930.84;;;1.79;100.00
13367;BME280;6752;52.612;13.630;2023-04-10T03:29:57;101930.45;;;1.62;100.00
13367;BME280;6752;52.612;13.630;2023-04-10T03:35:00;101929.82;;;1.49;100.00
13367;BME280;6752;52.612;13.630;2023-04-10T03:40:05;101938.73;;;1.50;100.00
13367;BME280;6752;52.612;13.630;2023-04-10T03:45:07;101936.05;;;1.50;100.00
13367;BME280;6752;52.612;13.630;2023-04-10T03:50:10;101938.77;;;1.44;100.00
13367;BME280;6752;52.612;13.630;2023-04-10T03:55:12;101941.39;;;1.45;100.00
13367;BME280;6752;52.612;13.630;2023-04-10T04:00:15;101935.04;;;1.40;100.00
13367;BME280;6752;52.612;13.630;2023-04-10T04:05:17;101939.17;;;1.34;100.00
13367;BME280;6752;52.612;13.630;2023-04-10T04:10:19;101945.73;;;1.31;100.00
13367;BME280;6752;52.612;13.630;2023-04-10T04:15:21;101946.58;;;1.21;100.00
13367;BME280;6752;52.612;13.630;2023-04-10T04:20:24;101946.72;;;1.19;100.00
13367;BME280;6752;52.612;13.630;2023-04-10T04:25:26;101949.80;;;1.25;100.00
13367;BME280;6752;52.612;13.630;2023-04-10T04:30:29;101948.34;;;1.31;100.00
13367;BME280;6752;52.612;13.630;2023-04-10T04:35:31;101945.80;;;1.30;100.00
13367;BME280;6752;52.612;13.630;2023-04-10T04:40:33;101943.47;;;1.31;100.00
13367;BME280;6752;52.612;13.630;2023-04-10T04:45:36;101949.33;;;1.30;100.00
13367;BME280;6752;52.612;13.630;2023-04-10T04:50:40;101953.36;;;1.20;100.00
13367;BME280;6752;52.612;13.630;2023-04-10T04:55:43;101950.52;;;1.27;100.00
13367;BME280;6752;52.612;13.630;2023-04-10T05:00:45;101952.52;;;1.30;100.00
13367;BME280;6752;52.612;13.630;2023-04-10T05:05:48;101945.85;;;1.39;100.00
13367;BME280;6752;52.612;13.630;2023-04-10T05:10:50;101937.52;;;1.48;100.00
13367;BME280;6752;52.612;13.630;2023-04-10T05:15:52;101940.36;;;1.72;100.00
13367;BME280;6752;52.612;13.630;2023-04-10T05:20:55;101935.20;;;2.00;100.00
13367;BME280;6752;52.612;13.630;2023-04-10T05:25:57;101940.39;;;2.08;100.00
13367;BME280;6752;52.612;13.630;2023-04-10T05:30:59;101943.95;;;2.33;100.00
13367;BME280;6752;52.612;13.630;2023-04-10T05:36:01;101946.02;;;2.90;100.00
13367;BME280;6752;52.612;13.630;2023-04-10T05:41:04;101947.73;;;3.15;100.00
13367;BME280;6752;52.612;13.630;2023-04-10T05:46:06;101946.15;;;3.46;100.00
13367;BME280;6752;52.612;13.630;2023-04-10T05:51:08;101946.94;;;3.85;100.00
13367;BME280;6752;52.612;13.630;2023-04-10T05:56:11;101948.28;;;4.55;100.00
13367;BME280;6752;52.612;13.630;2023-04-10T06:01:13;101948.82;;;5.03;100.00
13367;BME280;6752;52.612;13.630;2023-04-10T06:06:15;101935.89;;;5.51;100.00
13367;BME280;6752;52.612;13.630;2023-04-10T06:11:18;101930.28;;;5.83;100.00
13367;BME280;6752;52.612;13.630;2023-04-10T06:16:20;101919.03;;;6.09;100.00
13367;BME280;6752;52.612;13.630;2023-04-10T06:21:22;101926.52;;;6.57;100.00
13367;BME280;6752;52.612;13.630;2023-04-10T06:26:24;101924.38;;;6.69;100.00
13367;BME280;6752;52.612;13.630;2023-04-10T06:31:27;101916.72;;;6.97;100.00
13367;BME280;6752;52.612;13.630;2023-04-10T06:36:29;101916.84;;;7.58;100.00
13367;BME280;6752;52.612;13.630;2023-04-10T06:41:32;101912.35;;;7.93;100.00
13367;BME280;6752;52.612;13.630;2023-04-10T06:46:34;101916.05;;;7.81;100.00
13367;BME280;6752;52.612;13.630;2023-04-10T06:51:36;101918.23;;;7.85;100.00
13367;BME280;6752;52.612;13.630;2023-04-10T06:56:38;101906.84;;;8.80;100.00
13367;BME280;6752;52.612;13.630;2023-04-10T07:01:41;101904.77;;;9.09;100.00
13367;BME280;6752;52.612;13.630;2023-04-10T07:06:43;101903.12;;;9.34;100.00
13367;BME280;6752;52.612;13.630;2023-04-10T07:11:45;101892.84;;;9.78;100.00
13367;BME280;6752;52.612;13.630;2023-04-10T07:16:48;101896.47;;;9.75;100.00
13367;BME280;6752;52.612;13.630;2023-04-10T07:21:50;101899.46;;;10.43;100.00
13367;BME280;6752;52.612;13.630;2023-04-10T07:26:52;101891.52;;;10.55;100.00
13367;BME280;6752;52.612;13.630;2023-04-10T07:31:55;101892.86;;;10.70;100.00
13367;BME280;6752;52.612;13.630;2023-04-10T07:36:57;101895.63;;;10.84;100.00
13367;BME280;6752;52.612;13.630;2023-04-10T07:42:00;101894.87;;;12.34;100.00
13367;BME280;6752;52.612;13.630;2023-04-10T07:47:02;101899.36;;;11.79;100.00
13367;BME280;6752;52.612;13.630;2023-04-10T07:52:04;101884.97;;;12.09;100.00
13367;BME280;6752;52.612;13.630;2023-04-10T07:57:07;101872.62;;;13.18;100.00
13367;BME280;6752;52.612;13.630;2023-04-10T08:02:09;101874.03;;;13.51;100.00
13367;BME280;6752;52.612;13.630;2023-04-10T08:07:11;101874.70;;;13.06;100.00
13367;BME280;6752;52.612;13.630;2023-04-10T08:12:14;101871.89;;;13.79;100.00
13367;BME280;6752;52.612;13.630;2023-04-10T08:17:16;101868.20;;;13.79;100.00
13367;BME280;6752;52.612;13.630;2023-04-10T08:22:18;101868.46;;;14.04;100.00
13367;BME280;6752;52.612;13.630;2023-04-10T08:27:23;101856.03;;;14.43;98.85
13367;BME280;6752;52.612;13.630;2023-04-10T08:32:26;101860.70;;;14.55;97.66
13367;BME280;6752;52.612;13.630;2023-04-10T08:37:28;101859.38;;;14.49;98.59
13367;BME280;6752;52.612;13.630;2023-04-10T08:42:30;101851.51;;;15.84;91.46
13367;BME280;6752;52.612;13.630;2023-04-10T08:47:34;101854.94;;;16.38;89.17
13367;BME280;6752;52.612;13.630;2023-04-10T08:52:35;101847.91;;;15.87;86.40
13367;BME280;6752;52.612;13.630;2023-04-10T08:57:37;101851.94;;;15.34;83.08
13367;BME280;6752;52.612;13.630;2023-04-10T09:02:39;101843.03;;;15.51;88.89
13367;BME280;6752;52.612;13.630;2023-04-10T09:07:42;101839.56;;;15.75;77.04
13367;BME280;6752;52.612;13.630;2023-04-10T09:12:45;101825.62;;;16.28;78.32
13367;BME280;6752;52.612;13.630;2023-04-10T09:17:59;101825.22;;;17.03;79.18
13367;BME280;6752;52.612;13.630;2023-04-10T09:23:01;101811.62;;;16.54;77.18
13367;BME280;6752;52.612;13.630;2023-04-10T09:28:06;101800.08;;;17.61;76.14
13367;BME280;6752;52.612;13.630;2023-04-10T09:33:30;101792.41;;;16.60;74.81
13367;BME280;6752;52.612;13.630;2023-04-10T09:38:16;101785.89;;;16.33;71.50
13367;BME280;6752;52.612;13.630;2023-04-10T09:43:25;101773.77;;;17.85;69.47
13367;BME280;6752;52.612;13.630;2023-04-10T09:48:26;101771.58;;;17.93;66.91
13367;BME280;6752;52.612;13.630;2023-04-10T09:53:29;101771.06;;;17.47;68.90
13367;BME280;6752;52.612;13.630;2023-04-10T09:58:31;101758.06;;;17.04;66.47
13367;BME280;6752;52.612;13.630;2023-04-10T10:03:33;101754.48;;;17.33;69.49
13367;BME280;6752;52.612;13.630;2023-04-10T10:08:36;101750.34;;;18.34;65.03
13367;BME280;6752;52.612;13.630;2023-04-10T10:13:46;101740.76;;;18.73;64.05
13367;BME280;6752;52.612;13.630;2023-04-10T10:18:50;101739.56;;;18.12;65.22
13367;BME280;6752;52.612;13.630;2023-04-10T10:23:49;101737.41;;;17.39;65.75
13367;BME280;6752;52.612;13.630;2023-04-10T10:28:51;101725.94;;;19.05;66.72
13367;BME280;6752;52.612;13.630;2023-04-10T10:33:53;101725.32;;;17.28;65.01
13367;BME280;6752;52.612;13.630;2023-04-10T10:44:22;101699.53;;;18.47;60.81
13367;BME280;6752;52.612;13.630;2023-04-10T10:49:22;101687.39;;;18.87;63.55
13367;BME280;6752;52.612;13.630;2023-04-10T11:04:49;101671.58;;;19.57;65.73
13367;BME280;6752;52.612;13.630;2023-04-10T11:09:52;101660.55;;;20.06;61.61
13367;BME280;6752;52.612;13.630;2023-04-10T11:15:00;101651.73;;;19.63;60.69
13367;BME280;6752;52.612;13.630;2023-04-10T11:20:02;101662.55;;;18.48;61.19
13367;BME280;6752;52.612;13.630;2023-04-10T11:25:04;101649.12;;;19.34;61.15
13367;BME280;6752;52.612;13.630;2023-04-10T11:30:24;101638.86;;;18.74;58.70
13367;BME280;6752;52.612;13.630;2023-04-10T11:35:09;101631.62;;;19.92;59.12
13367;BME280;6752;52.612;13.630;2023-04-10T11:40:11;101628.05;;;18.64;59.05
13367;BME280;6752;52.612;13.630;2023-04-10T11:45:23;101619.66;;;18.74;60.03
13367;BME280;6752;52.612;13.630;2023-04-10T11:50:27;101610.90;;;18.79;56.71
13367;BME280;6752;52.612;13.630;2023-04-10T11:55:39;101596.93;;;20.54;55.39
13367;BME280;6752;52.612;13.630;2023-04-10T12:00:41;101593.81;;;20.02;56.39
13367;BME280;6752;52.612;13.630;2023-04-10T12:05:47;101584.50;;;19.98;57.46
13367;BME280;6752;52.612;13.630;2023-04-10T12:10:49;101572.45;;;19.16;58.07
13367;BME280;6752;52.612;13.630;2023-04-10T12:15:51;101551.11;;;21.59;53.58
13367;BME280;6752;52.612;13.630;2023-04-10T12:20:54;101564.80;;;18.29;60.68
13367;BME280;6752;52.612;13.630;2023-04-10T12:31:11;101556.38;;;17.82;62.56
13367;BME280;6752;52.612;13.630;2023-04-10T12:36:19;101546.06;;;18.48;60.59
13367;BME280;6752;52.612;13.630;2023-04-10T12:41:22;101527.97;;;18.74;59.76
13367;BME280;6752;52.612;13.630;2023-04-10T12:46:27;101522.80;;;18.19;58.83
13367;BME280;6752;52.612;13.630;2023-04-10T12:51:41;101525.69;;;18.35;61.98
13367;BME280;6752;52.612;13.630;2023-04-10T12:56:43;101513.47;;;17.97;60.08
13367;BME280;6752;52.612;13.630;2023-04-10T13:01:45;101503.20;;;17.64;62.93
13367;BME280;6752;52.612;13.630;2023-04-10T13:06:47;101489.54;;;17.69;63.77
13367;BME280;6752;52.612;13.630;2023-04-10T13:11:50;101488.05;;;17.01;66.78
13367;BME280;6752;52.612;13.630;2023-04-10T13:16:52;101482.69;;;16.46;67.36
13367;BME280;6752;52.612;13.630;2023-04-10T13:21:54;101462.22;;;17.68;64.94
13367;BME280;6752;52.612;13.630;2023-04-10T13:26:57;101455.62;;;17.32;66.36
13367;BME280;6752;52.612;13.630;2023-04-10T13:31:59;101434.75;;;18.73;61.34
13367;BME280;6752;52.612;13.630;2023-04-10T13:37:01;101421.28;;;18.60;61.67
13367;BME280;6752;52.612;13.630;2023-04-10T13:42:04;101418.27;;;18.61;60.56
13367;BME280;6752;52.612;13.630;2023-04-10T13:47:06;101408.57;;;18.59;61.48
13367;BME280;6752;52.612;13.630;2023-04-10T13:52:09;101391.38;;;19.38;60.12
13367;BME280;6752;52.612;13.630;2023-04-10T13:57:11;101389.34;;;18.55;60.19
13367;BME280;6752;52.612;13.630;2023-04-10T14:02:13;101382.83;;;17.76;58.30
13367;BME280;6752;52.612;13.630;2023-04-10T14:07:16;101371.58;;;17.40;58.05
13367;BME280;6752;52.612;13.630;2023-04-10T14:12:18;101377.76;;;17.47;60.96
13367;BME280;6752;52.612;13.630;2023-04-10T14:17:20;101361.61;;;17.62;59.13
13367;BME280;6752;52.612;13.630;2023-04-10T14:22:22;101360.70;;;17.56;58.93
13367;BME280;6752;52.612;13.630;2023-04-10T14:27:24;101353.17;;;17.60;59.95
13367;BME280;6752;52.612;13.630;2023-04-10T14:32:26;101338.50;;;17.65;58.77
13367;BME280;6752;52.612;13.630;2023-04-10T14:37:28;101343.91;;;17.83;58.67
13367;BME280;6752;52.612;13.630;2023-04-10T14:42:30;101341.83;;;17.82;60.11
13367;BME280;6752;52.612;13.630;2023-04-10T14:47:33;101338.04;;;16.98;62.39
13367;BME280;6752;52.612;13.630;2023-04-10T14:52:35;101325.97;;;17.16;62.02
13367;BME280;6752;52.612;13.630;2023-04-10T14:57:37;101314.92;;;16.91;64.12
13367;BME280;6752;52.612;13.630;2023-04-10T15:02:40;101312.23;;;17.27;61.69
13367;BME280;6752;52.612;13.630;2023-04-10T15:07:42;101301.68;;;16.68;65.63
13367;BME280;6752;52.612;13.630;2023-04-10T15:12:44;101293.22;;;16.86;62.97
13367;BME280;6752;52.612;13.630;2023-04-10T15:17:47;101290.97;;;16.91;62.46
13367;BME280;6752;52.612;13.630;2023-04-10T15:22:49;101288.41;;;16.24;63.84
13367;BME280;6752;52.612;13.630;2023-04-10T15:27:56;101281.23;;;15.98;64.02
13367;BME280;6752;52.612;13.630;2023-04-10T15:32:54;101262.11;;;16.71;62.71
13367;BME280;6752;52.612;13.630;2023-04-10T15:37:56;101256.39;;;16.67;62.52
13367;BME280;6752;52.612;13.630;2023-04-10T15:42:59;101256.22;;;16.45;62.74
13367;BME280;6752;52.612;13.630;2023-04-10T15:48:02;101249.87;;;16.30;60.62
13367;BME280;6752;52.612;13.630;2023-04-10T15:53:03;101229.69;;;16.10;60.18
13367;BME280;6752;52.612;13.630;2023-04-10T15:58:06;101221.39;;;16.02;59.40
13367;BME280;6752;52.612;13.630;2023-04-10T16:03:08;101210.88;;;16.19;61.30
13367;BME280;6752;52.612;13.630;2023-04-10T16:08:11;101197.57;;;16.14;62.49
13367;BME280;6752;52.612;13.630;2023-04-10T16:13:13;101184.31;;;16.05;62.54
13367;BME280;6752;52.612;13.630;2023-04-10T16:18:15;101184.91;;;15.92;60.25
13367;BME280;6752;52.612;13.630;2023-04-10T16:23:18;101169.71;;;15.76;60.59
13367;BME280;6752;52.612;13.630;2023-04-10T16:28:20;101162.79;;;15.93;60.74
13367;BME280;6752;52.612;13.630;2023-04-10T16:33:22;101152.11;;;16.03;61.19
13367;BME280;6752;52.612;13.630;2023-04-10T16:38:25;101139.38;;;15.85;59.90
13367;BME280;6752;52.612;13.630;2023-04-10T16:43:27;101143.09;;;15.90;61.58
13367;BME280;6752;52.612;13.630;2023-04-10T16:48:30;101132.27;;;15.72;62.30
13367;BME280;6752;52.612;13.630;2023-04-10T16:53:32;101120.17;;;15.47;60.94
13367;BME280;6752;52.612;13.630;2023-04-10T16:58:34;101119.78;;;15.41;60.36
13367;BME280;6752;52.612;13.630;2023-04-10T17:03:36;101109.22;;;15.30;60.18
13367;BME280;6752;52.612;13.630;2023-04-10T17:08:39;101099.34;;;15.17;60.50
13367;BME280;6752;52.612;13.630;2023-04-10T17:13:41;101103.54;;;14.96;61.21
13367;BME280;6752;52.612;13.630;2023-04-10T17:18:43;101102.58;;;14.96;62.63
13367;BME280;6752;52.612;13.630;2023-04-10T17:23:45;101089.80;;;14.40;68.11
13367;BME280;6752;52.612;13.630;2023-04-10T17:28:47;101086.16;;;13.95;74.28
13367;BME280;6752;52.612;13.630;2023-04-10T17:33:49;101077.33;;;13.88;76.92
13367;BME280;6752;52.612;13.630;2023-04-10T17:38:52;101068.95;;;13.62;77.79
13367;BME280;6752;52.612;13.630;2023-04-10T17:43:54;101061.81;;;13.66;74.57
13367;BME280;6752;52.612;13.630;2023-04-10T17:48:57;101057.37;;;13.54;74.58
13367;BME280;6752;52.612;13.630;2023-04-10T17:53:59;101045.25;;;13.37;75.45
13367;BME280;6752;52.612;13.630;2023-04-10T17:59:01;101044.75;;;13.29;76.22
13367;BME280;6752;52.612;13.630;2023-04-10T18:04:04;101035.91;;;13.08;76.92
13367;BME280;6752;52.612;13.630;2023-04-10T18:09:06;101037.77;;;13.11;76.92
13367;BME280;6752;52.612;13.630;2023-04-10T18:14:08;101029.56;;;12.84;78.17
13367;BME280;6752;52.612;13.630;2023-04-10T18:19:10;101021.66;;;12.85;77.37
13367;BME280;6752;52.612;13.630;2023-04-10T18:24:13;101021.14;;;12.73;77.41
13367;BME280;6752;52.612;13.630;2023-04-10T18:29:15;101020.19;;;12.73;76.66
13367;BME280;6752;52.612;13.630;2023-04-10T18:34:17;101021.84;;;12.86;73.96
13367;BME280;6752;52.612;13.630;2023-04-10T18:39:20;101012.12;;;12.81;73.65
13367;BME280;6752;52.612;13.630;2023-04-10T18:44:22;101013.31;;;12.58;75.68
13367;BME280;6752;52.612;13.630;2023-04-10T18:49:24;101011.41;;;12.46;77.04
13367;BME280;6752;52.612;13.630;2023-04-10T18:54:28;101013.58;;;12.41;77.33
13367;BME280;6752;52.612;13.630;2023-04-10T18:59:29;101002.64;;;12.62;74.32
13367;BME280;6752;52.612;13.630;2023-04-10T19:04:32;100993.04;;;12.53;74.17
13367;BME280;6752;52.612;13.630;2023-04-10T19:09:34;100982.52;;;12.44;74.88
13367;BME280;6752;52.612;13.630;2023-04-10T19:14:36;100985.29;;;12.31;76.42
13367;BME280;6752;52.612;13.630;2023-04-10T19:19:39;100968.12;;;12.12;78.23
13367;BME280;6752;52.612;13.630;2023-04-10T19:24:41;100960.83;;;12.03;79.45
13367;BME280;6752;52.612;13.630;2023-04-10T19:29:43;100954.37;;;11.97;79.94
13367;BME280;6752;52.612;13.630;2023-04-10T19:34:46;100945.88;;;11.84;81.09
13367;BME280;6752;52.612;13.630;2023-04-10T19:39:48;100938.83;;;11.85;80.53
13367;BME280;6752;52.612;13.630;2023-04-10T19:44:51;100933.96;;;11.72;80.68
13367;BME280;6752;52.612;13.630;2023-04-10T19:49:52;100926.08;;;11.73;80.56
13367;BME280;6752;52.612;13.630;2023-04-10T19:54:55;100914.28;;;11.75;79.95
13367;BME280;6752;52.612;13.630;2023-04-10T19:59:57;100914.39;;;11.75;79.28
13367;BME280;6752;52.612;13.630;2023-04-10T20:04:59;100898.31;;;11.79;78.05
13367;BME280;6752;52.612;13.630;2023-04-10T20:10:02;100900.86;;;11.74;77.88
13367;BME280;6752;52.612;13.630;2023-04-10T20:15:04;100881.16;;;11.68;78.17
13367;BME280;6752;52.612;13.630;2023-04-10T20:20:07;100874.45;;;11.68;78.39
13367;BME280;6752;52.612;13.630;2023-04-10T20:25:09;100853.41;;;11.72;77.52
13367;BME280;6752;52.612;13.630;2023-04-10T20:30:12;100846.33;;;11.51;78.14
13367;BME280;6752;52.612;13.630;2023-04-10T20:35:14;100843.75;;;11.47;78.17
13367;BME280;6752;52.612;13.630;2023-04-10T20:40:16;100839.78;;;11.56;76.59
13367;BME280;6752;52.612;13.630;2023-04-10T20:45:19;100829.34;;;11.49;76.71
13367;BME280;6752;52.612;13.630;2023-04-10T20:50:21;100823.64;;;11.42;76.78
13367;BME280;6752;52.612;13.630;2023-04-10T20:55:23;100822.00;;;11.34;76.78
13367;BME280;6752;52.612;13.630;2023-04-10T21:00:26;100807.36;;;11.29;76.87
13367;BME280;6752;52.612;13.630;2023-04-10T21:05:28;100813.88;;;11.28;76.40
13367;BME280;6752;52.612;13.630;2023-04-10T21:10:30;100803.00;;;11.24;76.87
13367;BME280;6752;52.612;13.630;2023-04-10T21:15:33;100815.86;;;11.17;77.17
13367;BME280;6752;52.612;13.630;2023-04-10T21:20:35;100810.46;;;10.95;79.26
13367;BME280;6752;52.612;13.630;2023-04-10T21:25:38;100804.17;;;10.94;79.13
13367;BME280;6752;52.612;13.630;2023-04-10T21:30:40;100800.44;;;11.01;78.04
13367;BME280;6752;52.612;13.630;2023-04-10T21:36:01;100788.53;;;10.95;77.77
13367;BME280;6752;52.612;13.630;2023-04-10T21:41:03;100786.67;;;10.93;77.37
13367;BME280;6752;52.612;13.630;2023-04-10T21:46:06;100784.60;;;10.85;77.69
13367;BME280;6752;52.612;13.630;2023-04-10T21:51:07;100775.95;;;10.94;77.00
13367;BME280;6752;52.612;13.630;2023-04-10T21:56:10;100774.28;;;10.94;76.43
13367;BME280;6752;52.612;13.630;2023-04-10T22:01:12;100763.95;;;10.99;75.87
13367;BME280;6752;52.612;13.630;2023-04-10T22:06:14;100759.48;;;10.95;75.48
13367;BME280;6752;52.612;13.630;2023-04-10T22:11:17;100748.27;;;10.94;75.08
13367;BME280;6752;52.612;13.630;2023-04-10T22:16:19;100729.95;;;11.01;74.47
13367;BME280;6752;52.612;13.630;2023-04-10T22:21:21;100731.61;;;11.02;74.17
13367;BME280;6752;52.612;13.630;2023-04-10T22:26:24;100712.14;;;10.99;74.27
13367;BME280;6752;52.612;13.630;2023-04-10T22:31:26;100698.20;;;10.98;74.26
13367;BME280;6752;52.612;13.630;2023-04-10T22:36:31;100689.66;;;10.91;74.63
13367;BME280;6752;52.612;13.630;2023-04-10T22:41:36;100678.03;;;10.86;75.09
13367;BME280;6752;52.612;13.630;2023-04-10T22:46:39;100669.62;;;10.91;74.27
13367;BME280;6752;52.612;13.630;2023-04-10T22:51:44;100666.70;;;10.86;75.02
13367;BME280;6752;52.612;13.630;2023-04-10T22:56:44;100668.59;;;10.89;74.27
13367;BME280;6752;52.612;13.630;2023-04-10T23:01:46;100646.06;;;10.84;74.17
13367;BME280;6752;52.612;13.630;2023-04-10T23:06:48;100648.64;;;10.79;74.83
13367;BME280;6752;52.612;13.630;2023-04-10T23:11:51;100636.67;;;10.80;74.46
13367;BME280;6752;52.612;13.630;2023-04-10T23:16:53;100632.12;;;10.83;74.06
13367;BME280;6752;52.612;13.630;2023-04-10T23:21:55;100628.14;;;10.73;74.69
13367;BME280;6752;52.612;13.630;2023-04-10T23:26:58;100614.39;;;10.65;75.30
13367;BME280;6752;52.612;13.630;2023-04-10T23:32:00;100615.03;;;10.60;75.79
13367;BME280;6752;52.612;13.630;2023-04-10T23:37:02;100603.93;;;10.59;76.16
13367;BME280;6752;52.612;13.630;2023-04-10T23:42:05;100596.37;;;10.48;76.93
13367;BME280;6752;52.612;13.630;2023-04-10T23:47:07;100574.47;;;10.49;77.40
13367;BME280;6752;52.612;13.630;2023-04-10T23:52:10;100554.06;;;10.46;77.41
13367;BME280;6752;52.612;13.630;2023-04-10T23:57:12;100555.98;;;10.42;77.61
